Time;durP1;ratioP1;P1;durP2;ratioP2;P2;SDS_P1;SDS_P2;PMS_P1;PMS_P2;Temp;Humidity;BMP_temperature;BMP_pressure;BME280_temperature;BME280_humidity;BME280_pressure;Samples;Min_cycle;Max_cycle;Signal;HPM_P1;HPM_P2
2022/07/10 00:00:07;;;;;;;6.03;2.22;;;;;;;13.93;66.69;102571.84;4967058;28;20026;-82
2022/07/10 00:02:33;;;;;;;6.85;2.45;;;;;;;13.93;67.26;102572.72;4964806;28;20125;-82
2022/07/10 00:04:59;;;;;;;4.45;2.28;;;;;;;13.92;66.76;102570.97;4969799;28;20286;-82
2022/07/10 00:07:24;;;;;;;4.30;2.13;;;;;;;13.95;66.83;102573.50;4970586;28;20031;-82
2022/07/10 00:09:49;;;;;;;6.32;2.40;;;;;;;13.83;66.90;102565.06;4962485;28;20073;-82
2022/07/10 00:12:15;;;;;;;4.53;1.98;;;;;;;13.85;67.11;102573.94;4970349;28;20034;-82
2022/07/10 00:14:40;;;;;;;4.95;2.17;;;;;;;13.81;67.28;102578.53;4965998;28;20034;-82
2022/07/10 00:17:06;;;;;;;4.40;2.20;;;;;;;13.83;67.45;102573.09;4962563;28;20030;-82
2022/07/10 00:19:31;;;;;;;7.35;1.88;;;;;;;13.80;67.18;102571.44;4966371;28;20054;-82
2022/07/10 00:21:57;;;;;;;6.40;2.35;;;;;;;13.80;67.48;102574.09;4968228;28;20090;-83
2022/07/10 00:24:22;;;;;;;6.55;2.10;;;;;;;13.75;67.65;102572.50;4969299;28;20591;-82
2022/07/10 00:26:47;;;;;;;4.68;2.33;;;;;;;13.75;67.50;102567.16;4968869;28;20025;-82
2022/07/10 00:29:14;;;;;;;8.75;2.67;;;;;;;13.72;68.11;102567.28;4973054;28;20031;-83
2022/07/10 00:31:39;;;;;;;6.13;2.20;;;;;;;13.66;68.20;102568.38;4970935;28;20026;-83
2022/07/10 00:34:06;;;;;;;6.28;2.13;;;;;;;13.62;68.77;102564.91;4975232;28;20030;-82
2022/07/10 00:36:31;;;;;;;5.35;2.22;;;;;;;13.63;68.53;102563.16;4969929;28;20061;-81
2022/07/10 00:38:56;;;;;;;5.72;2.17;;;;;;;13.60;68.86;102558.78;4967158;28;20114;-82
2022/07/10 00:41:22;;;;;;;4.90;2.50;;;;;;;13.56;69.14;102564.28;4968907;28;20089;-82
2022/07/10 00:43:55;;;;;;;4.22;2.20;;;;;;;13.57;68.80;102564.22;4969083;28;20093;-82
2022/07/10 00:46:20;;;;;;;4.75;2.30;;;;;;;13.52;69.19;102543.94;4970377;28;20034;-82
2022/07/10 00:48:47;;;;;;;5.03;2.20;;;;;;;13.52;69.25;102554.63;4969777;28;20026;-82
2022/07/10 00:51:14;;;;;;;9.35;2.53;;;;;;;13.45;69.64;102560.19;4968146;28;20481;-82
2022/07/10 00:53:39;;;;;;;6.25;2.53;;;;;;;13.41;69.86;102553.19;4968523;28;20461;-82
2022/07/10 00:56:06;;;;;;;5.50;2.00;;;;;;;13.37;70.12;102548.00;4967957;28;20031;-83
2022/07/10 00:58:33;;;;;;;4.85;2.33;;;;;;;13.28;70.11;102540.31;4970450;28;20385;-82
2022/07/10 01:00:59;;;;;;;8.50;2.70;;;;;;;13.23;70.47;102543.16;4967573;28;20037;-83
2022/07/10 01:03:25;;;;;;;5.90;2.45;;;;;;;13.27;70.32;102547.47;4970139;28;20516;-83
2022/07/10 01:05:50;;;;;;;5.38;2.28;;;;;;;13.22;70.51;102538.72;4969894;28;20158;-82
2022/07/10 01:08:16;;;;;;;5.72;2.10;;;;;;;13.16;70.80;102530.88;4968871;28;20062;-82
2022/07/10 01:10:41;;;;;;;4.50;1.98;;;;;;;13.12;70.94;102531.91;4965936;28;20042;-82
2022/07/10 01:13:07;;;;;;;7.60;2.40;;;;;;;13.14;71.13;102538.09;4966924;28;20418;-82
2022/07/10 01:15:33;;;;;;;5.38;2.58;;;;;;;13.12;71.42;102529.25;4968686;28;20452;-82
2022/07/10 01:17:59;;;;;;;8.93;2.85;;;;;;;13.12;71.30;102534.59;4970148;28;20069;-83
2022/07/10 01:20:30;;;;;;;3.25;2.15;;;;;;;13.05;71.36;102533.94;4968089;28;20477;-82
2022/07/10 01:22:55;;;;;;;8.30;2.63;;;;;;;13.07;71.71;102526.72;4959684;28;20118;-82
2022/07/10 01:25:20;;;;;;;5.60;2.03;;;;;;;13.05;71.68;102525.94;4966694;28;20122;-82
2022/07/10 01:27:46;;;;;;;4.57;2.33;;;;;;;13.05;71.58;102527.72;4968462;28;20042;-82
2022/07/10 01:30:11;;;;;;;5.22;2.25;;;;;;;13.07;71.71;102520.50;4967731;28;20026;-82
2022/07/10 01:32:40;;;;;;;4.95;2.50;;;;;;;13.04;71.81;102517.94;4966131;28;20061;-82
2022/07/10 01:35:07;;;;;;;5.65;2.38;;;;;;;13.04;71.95;102516.16;4970243;28;20034;-81
2022/07/10 01:37:32;;;;;;;6.25;2.72;;;;;;;13.07;71.79;102510.69;4968191;28;20499;-81
2022/07/10 01:39:57;;;;;;;3.90;1.80;;;;;;;13.08;72.07;102517.78;4967754;28;20028;-81
2022/07/10 01:42:23;;;;;;;7.10;2.30;;;;;;;13.04;72.31;102510.81;4967279;28;20109;-81
2022/07/10 01:44:48;;;;;;;3.90;2.20;;;;;;;13.03;72.31;102511.72;4967733;28;20142;-82
2022/07/10 01:47:13;;;;;;;3.70;2.47;;;;;;;13.02;72.04;102509.97;4969087;28;20120;-82
2022/07/10 01:49:39;;;;;;;7.65;2.45;;;;;;;12.98;72.38;102511.00;4969187;28;20472;-82
2022/07/10 01:52:04;;;;;;;6.32;2.47;;;;;;;12.94;72.41;102504.91;4966596;28;20521;-82
2022/07/10 01:54:30;;;;;;;8.00;2.80;;;;;;;12.89;72.69;102511.34;4967141;28;20031;-82
2022/07/10 01:56:55;;;;;;;5.20;2.72;;;;;;;12.90;72.85;102513.06;4969889;28;20540;-82
2022/07/10 01:59:20;;;;;;;5.38;2.53;;;;;;;12.85;73.84;102515.91;4969485;28;20361;-82
2022/07/10 02:01:45;;;;;;;8.27;2.53;;;;;;;12.84;73.60;102511.50;4965460;28;20114;-82
2022/07/10 02:06:55;;;;;;;6.63;2.38;;;;;;;12.78;73.75;102514.34;4968947;28;20046;-82
2022/07/10 02:09:20;;;;;;;6.95;2.60;;;;;;;12.71;73.92;102510.16;4967428;28;20027;-82
2022/07/10 02:11:45;;;;;;;4.65;2.35;;;;;;;12.71;74.13;102511.03;4968256;28;20035;-82
2022/07/10 02:14:10;;;;;;;5.60;2.42;;;;;;;12.71;74.73;102510.16;4966919;28;20035;-82
2022/07/10 02:16:36;;;;;;;6.95;2.55;;;;;;;12.59;74.71;102513.25;4972483;28;20102;-82
2022/07/10 02:19:02;;;;;;;4.65;2.50;;;;;;;12.56;74.55;102500.84;4986390;28;20027;-81
2022/07/10 02:21:28;;;;;;;6.40;2.30;;;;;;;12.62;74.56;102515.78;4987983;28;20031;-81
2022/07/10 02:23:53;;;;;;;4.32;2.25;;;;;;;12.59;74.60;102518.59;4989988;28;20114;-82
2022/07/10 02:26:18;;;;;;;5.43;2.67;;;;;;;12.54;74.76;102508.06;4990828;28;20038;-82
2022/07/10 02:28:44;;;;;;;4.75;2.30;;;;;;;12.52;74.86;102511.69;4971759;28;20049;-82
2022/07/10 02:31:09;;;;;;;6.78;2.70;;;;;;;12.47;75.18;102506.50;4968177;28;20029;-82
2022/07/10 02:33:36;;;;;;;7.88;2.55;;;;;;;12.40;75.36;102500.47;4969731;28;20030;-82
2022/07/10 02:36:01;;;;;;;7.07;2.42;;;;;;;12.42;75.62;102505.78;4970478;28;20389;-82
2022/07/10 02:38:27;;;;;;;6.32;2.30;;;;;;;12.39;75.89;102495.19;4984036;28;20019;-81
2022/07/10 02:40:52;;;;;;;8.20;2.70;;;;;;;12.43;75.95;102505.72;4966726;28;20417;-82
2022/07/10 02:43:18;;;;;;;5.03;2.42;;;;;;;12.39;75.65;102504.06;4969545;28;20046;-82
2022/07/10 02:45:43;;;;;;;5.40;2.50;;;;;;;12.29;76.25;102499.94;4968309;28;20077;-82
2022/07/10 02:48:09;;;;;;;8.05;2.75;;;;;;;12.33;76.14;102504.28;4981446;28;20027;-82
2022/07/10 02:50:34;;;;;;;8.68;2.83;;;;;;;12.29;76.52;102494.63;4966493;28;20138;-82
2022/07/10 02:52:59;;;;;;;6.55;2.45;;;;;;;12.33;76.18;102500.69;4967023;28;20082;-82
2022/07/10 02:55:24;;;;;;;6.65;2.25;;;;;;;12.30;76.52;102501.69;4982606;28;20038;-82
2022/07/10 02:57:50;;;;;;;3.65;2.58;;;;;;;12.28;76.84;102498.19;4965506;28;20496;-82
2022/07/10 03:00:15;;;;;;;6.43;2.75;;;;;;;12.29;76.81;102499.06;4966299;28;20088;-82
2022/07/10 03:02:41;;;;;;;9.23;2.72;;;;;;;12.28;76.86;102494.63;4966954;28;20469;-82
2022/07/10 03:05:07;;;;;;;6.30;3.15;;;;;;;12.31;76.98;102499.88;4967244;28;20027;-81
2022/07/10 03:07:33;;;;;;;8.50;2.67;;;;;;;12.36;77.08;102497.94;4967076;28;20030;-82
2022/07/10 03:09:58;;;;;;;6.03;2.88;;;;;;;12.45;76.82;102506.53;4965064;28;20081;-82
2022/07/10 03:12:23;;;;;;;6.32;2.72;;;;;;;12.58;76.26;102507.03;4966646;28;20136;-82
2022/07/10 03:14:48;;;;;;;8.30;3.05;;;;;;;12.67;76.02;102503.19;4967761;28;20031;-82
2022/07/10 03:17:14;;;;;;;6.40;2.60;;;;;;;12.75;75.94;102500.22;4968161;28;20030;-82
2022/07/10 03:19:39;;;;;;;5.60;2.70;;;;;;;12.77;75.83;102491.25;4965534;28;20042;-82
2022/07/10 03:22:04;;;;;;;6.18;2.80;;;;;;;12.85;75.56;102494.53;4966533;28;20042;-82
2022/07/10 03:24:30;;;;;;;5.93;2.83;;;;;;;12.84;75.56;102492.78;4968870;28;20381;-82
2022/07/10 03:26:55;;;;;;;8.38;2.67;;;;;;;12.86;75.70;102492.72;4967805;28;20030;-82
2022/07/10 03:29:20;;;;;;;7.80;2.92;;;;;;;12.85;75.31;102494.53;4967096;28;20029;-82
2022/07/10 03:31:45;;;;;;;8.30;3.00;;;;;;;12.82;75.61;102491.94;4965001;28;20033;-82
2022/07/10 03:34:11;;;;;;;5.95;3.00;;;;;;;12.78;75.76;102481.44;4967780;28;20487;-82
2022/07/10 03:36:36;;;;;;;7.15;2.70;;;;;;;12.79;75.70;102494.75;4966568;28;20019;-82
2022/07/10 03:39:01;;;;;;;5.65;2.55;;;;;;;12.73;75.91;102481.59;4966931;28;20026;-82
2022/07/10 03:41:27;;;;;;;7.78;2.95;;;;;;;12.67;76.24;102487.16;4966289;28;20039;-82
2022/07/10 03:43:52;;;;;;;4.55;2.67;;;;;;;12.62;76.61;102491.75;4972244;28;20038;-82
2022/07/10 03:46:17;;;;;;;6.05;2.67;;;;;;;12.57;76.53;102477.69;4976608;28;20030;-82
2022/07/10 03:48:43;;;;;;;5.82;2.25;;;;;;;12.55;77.00;102485.75;4965722;28;20393;-82
2022/07/10 03:51:08;;;;;;;6.60;2.90;;;;;;;12.47;77.36;102474.44;4965377;28;20051;-82
2022/07/10 03:53:33;;;;;;;6.10;3.03;;;;;;;12.57;76.99;102473.19;4965887;28;20113;-82
2022/07/10 03:56:00;;;;;;;5.82;2.50;;;;;;;12.67;77.16;102481.81;4967174;28;20023;-82
2022/07/10 03:58:26;;;;;;;5.78;2.83;;;;;;;12.73;76.73;102478.91;4982328;28;20508;-82
2022/07/10 04:00:51;;;;;;;4.88;2.40;;;;;;;12.79;76.39;102475.16;4963781;28;20101;-82
2022/07/10 04:03:16;;;;;;;6.32;2.60;;;;;;;12.86;76.34;102480.22;4969251;28;20065;-82
2022/07/10 04:05:41;;;;;;;7.05;2.58;;;;;;;12.89;76.19;102480.13;4970856;28;20030;-82
2022/07/10 04:08:08;;;;;;;4.72;2.60;;;;;;;12.92;76.14;102477.38;4971178;28;20201;-82
2022/07/10 04:10:34;;;;;;;9.70;3.17;;;;;;;12.89;76.17;102474.78;4969600;28;20022;-82
2022/07/10 04:12:59;;;;;;;7.75;2.75;;;;;;;12.95;76.22;102469.22;4967875;28;20050;-82
2022/07/10 04:15:25;;;;;;;6.18;3.03;;;;;;;13.01;76.12;102472.63;4970707;28;20027;-82
2022/07/10 04:17:51;;;;;;;5.80;2.80;;;;;;;13.04;76.24;102473.41;4971041;28;20054;-82
2022/07/10 04:20:17;;;;;;;5.47;2.88;;;;;;;13.10;75.32;102477.66;4969004;28;20019;-82
2022/07/10 04:22:43;;;;;;;5.85;2.70;;;;;;;13.15;75.35;102478.34;4969572;28;20066;-82
2022/07/10 04:25:11;;;;;;;5.80;2.90;;;;;;;13.19;75.56;102478.19;4971462;28;20358;-82
2022/07/10 04:27:36;;;;;;;6.22;2.63;;;;;;;13.21;75.42;102476.34;4969735;28;20031;-82
2022/07/10 04:30:03;;;;;;;5.78;2.70;;;;;;;13.24;74.87;102480.72;4969124;28;20538;-82
2022/07/10 04:32:28;;;;;;;5.72;2.90;;;;;;;13.29;74.79;102480.56;4968578;28;20038;-82
2022/07/10 04:34:54;;;;;;;4.82;2.30;;;;;;;13.32;74.70;102488.47;4966395;28;20022;-82
2022/07/10 04:37:20;;;;;;;5.47;2.15;;;;;;;13.32;73.96;102457.25;4970131;28;20034;-82
2022/07/10 04:39:45;;;;;;;7.05;2.88;;;;;;;13.35;74.59;102451.78;4970724;28;20397;-82
2022/07/10 04:42:10;;;;;;;4.32;2.42;;;;;;;13.48;74.45;102457.56;4969162;28;20054;-82
2022/07/10 04:44:36;;;;;;;6.22;2.60;;;;;;;13.53;73.74;102473.44;4971596;28;20390;-82
2022/07/10 04:47:02;;;;;;;6.47;2.58;;;;;;;13.58;73.44;102471.44;4969513;28;20023;-82
2022/07/10 04:49:28;;;;;;;5.72;2.80;;;;;;;13.61;73.60;102472.22;4971656;28;20078;-82
2022/07/10 04:51:54;;;;;;;5.50;2.25;;;;;;;13.60;73.24;102462.44;4967540;28;20043;-82
2022/07/10 04:54:19;;;;;;;6.82;2.78;;;;;;;13.63;73.65;102465.03;4970265;28;20412;-82
2022/07/10 04:56:45;;;;;;;5.65;2.75;;;;;;;13.72;73.40;102476.31;4968984;28;20018;-82
2022/07/10 04:59:11;;;;;;;5.82;2.38;;;;;;;13.73;73.48;102464.66;4968917;28;20035;-82
2022/07/10 05:01:39;;;;;;;8.57;2.45;;;;;;;13.79;73.17;102459.94;4966512;28;20031;-82
2022/07/10 05:04:04;;;;;;;5.35;2.53;;;;;;;13.82;73.04;102475.88;4970035;28;20031;-83
2022/07/10 05:06:30;;;;;;;7.72;2.45;;;;;;;13.83;72.79;102477.63;4969106;28;20026;-82
2022/07/10 05:08:56;;;;;;;6.78;2.50;;;;;;;13.89;72.50;102485.44;4969462;28;20039;-82
2022/07/10 05:11:22;;;;;;;5.68;2.40;;;;;;;13.93;72.49;102496.91;4968068;28;20308;-82
2022/07/10 05:13:48;;;;;;;4.88;2.70;;;;;;;13.92;72.75;102492.47;4969490;28;20038;-82
2022/07/10 05:16:14;;;;;;;7.75;2.42;;;;;;;13.96;72.39;102475.34;4969280;28;20027;-82
2022/07/10 05:18:40;;;;;;;9.07;2.63;;;;;;;14.04;72.35;102461.66;4967250;28;20039;-82
2022/07/10 05:21:06;;;;;;;5.88;2.40;;;;;;;14.12;71.99;102472.94;4965101;28;20065;-82
2022/07/10 05:23:31;;;;;;;5.57;2.50;;;;;;;14.25;71.94;102490.25;4968267;28;20034;-82
2022/07/10 05:25:56;;;;;;;7.28;2.70;;;;;;;14.24;71.28;102483.16;4967784;28;20027;-82
2022/07/10 05:28:22;;;;;;;6.70;2.35;;;;;;;14.34;71.21;102487.22;4973152;28;20042;-81
2022/07/10 05:30:48;;;;;;;4.95;2.40;;;;;;;14.41;71.21;102483.34;4982408;28;20035;-81
2022/07/10 05:33:14;;;;;;;4.63;2.45;;;;;;;14.55;70.52;102484.63;4993087;28;20054;-81
2022/07/10 05:35:39;;;;;;;6.85;2.58;;;;;;;14.58;69.89;102479.13;4991389;28;20023;-82
2022/07/10 05:38:05;;;;;;;4.18;2.35;;;;;;;14.60;69.90;102472.78;4974864;28;20026;-82
2022/07/10 05:40:30;;;;;;;5.70;2.10;;;;;;;14.65;70.51;102475.25;4970592;28;20034;-81
2022/07/10 05:42:55;;;;;;;5.65;2.28;;;;;;;14.74;70.41;102476.69;4969684;28;20414;-82
2022/07/10 05:45:21;;;;;;;7.38;2.45;;;;;;;14.77;70.26;102472.06;4971537;28;20118;-82
2022/07/10 05:47:46;;;;;;;5.40;2.25;;;;;;;14.74;70.62;102471.31;4969330;28;20037;-82
2022/07/10 05:50:11;;;;;;;6.55;2.45;;;;;;;14.79;70.75;102475.53;4969542;28;20014;-82
2022/07/10 05:52:37;;;;;;;5.80;1.98;;;;;;;14.87;70.57;102477.91;4966906;28;20109;-82
2022/07/10 05:55:03;;;;;;;6.47;1.95;;;;;;;14.99;69.99;102484.53;4969368;28;20039;-82
2022/07/10 05:57:34;;;;;;;6.82;2.15;;;;;;;15.07;69.35;102479.72;4968863;28;20034;-82
2022/07/10 05:59:59;;;;;;;10.57;2.80;;;;;;;15.08;68.69;102481.47;4966262;28;20047;-83
2022/07/10 06:02:25;;;;;;;8.75;2.08;;;;;;;15.05;68.01;102481.59;4968344;28;20045;-82
2022/07/10 06:04:50;;;;;;;7.60;1.92;;;;;;;15.18;68.72;102477.44;4968980;28;20161;-82
2022/07/10 06:07:16;;;;;;;6.80;2.20;;;;;;;15.42;67.97;102488.88;4968179;28;20077;-82
2022/07/10 06:09:41;;;;;;;4.28;1.75;;;;;;;15.60;67.23;102481.81;4967905;28;20058;-83
2022/07/10 06:12:06;;;;;;;6.40;1.83;;;;;;;15.75;67.05;102475.75;4967429;28;20031;-83
2022/07/10 06:14:32;;;;;;;7.28;2.03;;;;;;;15.93;65.77;102476.72;4968278;28;20033;-83
2022/07/10 06:16:57;;;;;;;6.25;1.98;;;;;;;16.04;64.50;102469.00;4967925;28;20276;-83
2022/07/10 06:19:22;;;;;;;9.50;2.22;;;;;;;16.27;65.03;102484.03;4964819;28;20428;-83
2022/07/10 06:21:48;;;;;;;6.30;1.80;;;;;;;16.39;63.74;102488.81;4967938;28;20031;-82
2022/07/10 06:24:13;;;;;;;5.60;1.83;;;;;;;16.55;63.35;102483.50;4969235;28;20019;-83
2022/07/10 06:26:38;;;;;;;4.78;1.85;;;;;;;16.69;63.22;102483.72;4956890;28;20428;-83
2022/07/10 06:29:04;;;;;;;7.13;2.13;;;;;;;16.74;63.10;102486.19;4966211;28;20038;-83
2022/07/10 06:31:29;;;;;;;5.53;1.88;;;;;;;17.00;61.50;102490.22;4967732;28;20055;-82
2022/07/10 06:33:54;;;;;;;7.18;1.90;;;;;;;17.46;60.61;102490.50;4969168;28;20478;-82
2022/07/10 06:36:20;;;;;;;5.95;1.60;;;;;;;17.70;59.63;102482.06;4966630;28;20035;-82
2022/07/10 06:38:45;;;;;;;8.23;2.15;;;;;;;17.58;60.06;102470.13;4964187;28;20026;-82
2022/07/10 06:41:10;;;;;;;6.80;1.85;;;;;;;17.60;60.49;102481.69;4962393;28;20031;-81
2022/07/10 06:43:36;;;;;;;4.50;1.70;;;;;;;17.75;59.28;102478.19;4969382;28;20034;-81
2022/07/10 06:46:01;;;;;;;5.47;1.98;;;;;;;17.85;59.57;102475.88;4968786;28;20035;-82
2022/07/10 06:48:27;;;;;;;4.63;1.90;;;;;;;17.98;59.01;102468.81;4965369;28;20494;-82
2022/07/10 06:50:53;;;;;;;7.80;1.90;;;;;;;17.92;57.95;102470.03;4965097;28;20117;-81
2022/07/10 06:53:23;;;;;;;7.90;2.20;;;;;;;17.86;58.60;102474.91;4964960;28;20125;-82
2022/07/10 06:55:50;;;;;;;7.82;1.98;;;;;;;17.84;59.31;102472.28;4966929;28;20489;-81
2022/07/10 06:58:15;;;;;;;6.18;1.67;;;;;;;17.75;59.69;102480.88;4962248;28;20041;-82
2022/07/10 07:00:40;;;;;;;7.13;2.88;;;;;;;17.66;59.32;102481.34;4965508;28;20034;-82
2022/07/10 07:03:05;;;;;;;15.57;6.40;;;;;;;17.74;59.26;102470.16;4966836;28;20620;-82
2022/07/10 07:05:31;;;;;;;3.83;2.00;;;;;;;17.70;58.98;102485.63;4967023;28;20031;-83
2022/07/10 07:07:56;;;;;;;6.70;1.70;;;;;;;17.67;59.77;102472.31;4967202;28;20034;-82
2022/07/10 07:10:21;;;;;;;4.90;1.70;;;;;;;17.67;59.78;102466.91;4965925;28;20049;-83
2022/07/10 07:12:47;;;;;;;4.97;1.85;;;;;;;17.99;60.27;102472.38;4963854;28;20026;-82
2022/07/10 07:15:12;;;;;;;4.85;1.83;;;;;;;18.19;58.68;102469.44;4964843;28;20038;-83
2022/07/10 07:17:56;;;;;;;5.18;1.80;;;;;;;18.16;58.05;102464.22;4967843;28;20042;-84
2022/07/10 07:23:10;;;;;;;6.05;1.75;;;;;;;18.34;57.96;102475.75;4967835;28;20050;-83
2022/07/10 07:25:35;;;;;;;6.78;1.88;;;;;;;18.55;57.02;102479.03;4966241;28;20030;-83
2022/07/10 07:28:00;;;;;;;6.30;1.83;;;;;;;18.78;56.32;102483.97;4963942;28;20106;-82
2022/07/10 07:30:26;;;;;;;5.65;1.80;;;;;;;19.01;57.00;102482.59;4965517;28;20050;-83
2022/07/10 07:32:51;;;;;;;6.28;1.77;;;;;;;19.37;55.20;102489.41;4966405;28;20038;-83
2022/07/10 07:35:17;;;;;;;4.65;1.50;;;;;;;19.42;54.31;102480.03;4968266;28;20485;-83
2022/07/10 07:37:46;;;;;;;8.48;1.80;;;;;;;19.37;54.79;102486.72;4967361;28;20027;-82
2022/07/10 07:40:21;;;;;;;6.63;2.08;;;;;;;19.51;53.92;102486.69;4974355;28;20351;-83
2022/07/10 07:42:46;;;;;;;3.88;1.77;;;;;;;19.43;53.94;102489.00;4972790;28;20499;-83
2022/07/10 07:45:11;;;;;;;8.05;1.80;;;;;;;19.08;54.63;102477.69;4972921;28;20031;-82
2022/07/10 07:47:48;;;;;;;4.55;1.80;;;;;;;18.67;56.07;102483.72;4971969;28;20531;-83
2022/07/10 07:50:19;;;;;;;8.07;1.90;;;;;;;18.53;57.10;102491.75;4974449;28;20558;-82
2022/07/10 07:52:45;;;;;;;8.32;2.08;;;;;;;18.59;57.25;102483.28;4973261;28;20444;-83
2022/07/10 07:55:12;;;;;;;8.05;1.77;;;;;;;18.74;57.14;102489.66;4972557;28;20089;-82
2022/07/10 07:57:38;;;;;;;7.80;1.98;;;;;;;18.82;56.83;102481.97;4973533;28;20027;-82
2022/07/10 08:00:06;;;;;;;4.47;1.80;;;;;;;18.82;56.87;102472.03;4970515;28;20042;-82
2022/07/10 08:02:31;;;;;;;5.18;1.80;;;;;;;18.98;56.67;102479.19;4970731;28;20558;-82
2022/07/10 08:04:57;;;;;;;6.88;1.90;;;;;;;18.92;56.39;102491.25;4975126;28;20614;-83
2022/07/10 08:07:22;;;;;;;6.43;1.85;;;;;;;18.76;56.88;102483.19;4974453;28;20461;-83
2022/07/10 08:09:48;;;;;;;6.03;2.03;;;;;;;18.79;57.53;102480.31;4968199;28;20049;-83
2022/07/10 08:12:14;;;;;;;5.72;1.88;;;;;;;18.65;57.32;102481.09;4973036;28;20067;-83
2022/07/10 08:14:39;;;;;;;8.10;2.10;;;;;;;18.57;57.77;102477.13;4975741;28;20105;-83
2022/07/10 08:17:04;;;;;;;6.15;2.08;;;;;;;18.49;57.83;102480.25;4973982;28;20035;-82
2022/07/10 08:19:30;;;;;;;7.05;2.10;;;;;;;18.49;58.22;102477.56;4974454;28;20030;-82
2022/07/10 08:21:55;;;;;;;4.70;1.83;;;;;;;18.43;58.39;102475.22;4969608;28;20314;-81
2022/07/10 08:24:22;;;;;;;5.72;2.00;;;;;;;18.46;58.32;102474.19;4977310;28;20074;-82
2022/07/10 08:26:47;;;;;;;7.32;2.00;;;;;;;18.47;58.22;102473.22;4977539;28;20027;-82
2022/07/10 08:29:12;;;;;;;8.10;2.65;;;;;;;18.55;58.17;102484.41;4969843;28;20033;-82
2022/07/10 08:31:39;;;;;;;11.55;4.78;;;;;;;18.53;58.21;102476.44;4973694;28;20039;-83
2022/07/10 08:34:04;;;;;;;11.45;5.15;;;;;;;18.38;58.21;102470.09;4983189;28;20036;-83
2022/07/10 08:36:30;;;;;;;7.22;3.13;;;;;;;18.38;58.93;102467.41;4982386;28;20113;-84
2022/07/10 08:38:56;;;;;;;5.57;2.53;;;;;;;18.42;58.74;102476.19;4978923;28;20429;-83
2022/07/10 08:41:26;;;;;;;7.43;2.67;;;;;;;18.30;58.49;102475.06;4980364;28;20023;-83
2022/07/10 08:43:51;;;;;;;12.27;3.50;;;;;;;18.20;58.62;102478.38;4981428;28;20073;-82
2022/07/10 08:46:18;;;;;;;9.30;3.20;;;;;;;18.12;59.31;102478.81;4974722;28;20018;-82
2022/07/10 08:48:48;;;;;;;6.65;2.50;;;;;;;18.15;59.39;102481.34;4970266;28;20027;-82
2022/07/10 08:51:23;;;;;;;5.75;3.20;;;;;;;18.01;59.55;102483.94;4978153;28;20514;-83
2022/07/10 08:53:51;;;;;;;7.30;3.05;;;;;;;18.00;59.67;102482.19;4977766;28;20054;-83
2022/07/10 08:56:16;;;;;;;4.47;2.42;;;;;;;17.99;59.73;102483.16;4974783;28;20026;-83
2022/07/10 08:58:42;;;;;;;7.20;2.95;;;;;;;17.94;60.05;102487.94;4972445;28;20034;-83
2022/07/10 09:01:07;;;;;;;6.30;2.80;;;;;;;17.96;60.02;102489.59;4977461;28;20027;-83
2022/07/10 09:03:33;;;;;;;5.82;2.85;;;;;;;17.94;60.44;102493.34;4972457;28;20361;-83
2022/07/10 09:05:58;;;;;;;6.60;3.30;;;;;;;17.99;60.00;102496.63;4972673;28;20173;-83
2022/07/10 09:08:31;;;;;;;7.75;3.13;;;;;;;18.01;59.70;102487.50;4970494;28;20496;-83
2022/07/10 09:11:16;;;;;;;10.30;3.90;;;;;;;18.01;60.38;102495.56;4970524;28;20373;-84
2022/07/10 09:13:52;;;;;;;7.85;3.10;;;;;;;17.95;60.46;102489.69;4968115;28;20037;-82
2022/07/10 09:16:21;;;;;;;5.65;3.10;;;;;;;17.93;60.96;102489.75;4975072;28;20030;-84
2022/07/10 09:18:47;;;;;;;6.15;3.33;;;;;;;17.99;60.87;102483.16;4971235;28;20062;-83
2022/07/10 09:21:12;;;;;;;6.97;2.90;;;;;;;18.20;60.72;102473.84;4970895;28;20066;-83
2022/07/10 09:23:37;;;;;;;7.57;3.58;;;;;;;18.36;59.69;102477.41;4973160;28;20093;-84
2022/07/10 09:26:04;;;;;;;6.90;3.05;;;;;;;18.41;59.11;102471.75;4971105;28;20560;-83
2022/07/10 09:28:29;;;;;;;6.30;3.20;;;;;;;18.47;59.04;102470.53;4971595;28;20698;-83
2022/07/10 09:30:56;;;;;;;7.18;2.80;;;;;;;18.49;59.00;102466.78;4972580;28;20110;-84
2022/07/10 09:33:30;;;;;;;7.22;2.72;;;;;;;18.53;59.39;102470.19;4968699;28;20274;-84
2022/07/10 09:36:08;;;;;;;9.80;3.00;;;;;;;18.68;58.55;102463.84;4967371;28;20038;-81
2022/07/10 09:38:39;;;;;;;8.88;3.00;;;;;;;19.03;57.12;102460.94;4974683;28;20109;-82
2022/07/10 09:41:26;;;;;;;6.68;2.80;;;;;;;19.40;57.71;102462.22;4972051;28;20062;-81
2022/07/10 09:43:57;;;;;;;6.25;2.92;;;;;;;19.64;56.09;102460.69;4971718;28;20027;-81
2022/07/10 09:46:30;;;;;;;9.35;4.18;;;;;;;19.76;55.70;102455.47;4967144;28;20077;-82
2022/07/10 09:49:06;;;;;;;6.60;2.78;;;;;;;20.02;55.46;102454.69;4967469;28;20461;-81
2022/07/10 09:51:43;;;;;;;5.45;2.70;;;;;;;20.34;53.90;102455.22;4968776;28;20057;-81
2022/07/10 09:54:09;;;;;;;5.28;2.45;;;;;;;20.89;52.31;102453.34;4971659;28;20030;-84
2022/07/10 09:56:51;;;;;;;7.57;2.28;;;;;;;21.16;51.87;102457.84;4976179;28;20043;-83
2022/07/10 09:59:17;;;;;;;6.28;2.70;;;;;;;20.88;51.76;102455.19;4978211;28;20200;-83
2022/07/10 10:01:49;;;;;;;5.07;2.40;;;;;;;20.28;52.41;102452.94;4969543;28;20450;-82
2022/07/10 10:04:20;;;;;;;5.63;2.53;;;;;;;19.86;53.78;102448.53;4973758;28;20026;-84
2022/07/10 10:06:53;;;;;;;6.95;2.67;;;;;;;19.52;55.61;102452.47;4970280;28;20030;-84
2022/07/10 10:09:25;;;;;;;8.82;2.70;;;;;;;19.27;56.25;102453.13;4970394;28;20054;-84
2022/07/10 10:11:57;;;;;;;8.15;2.60;;;;;;;19.12;57.38;102457.66;4963519;28;20031;-83
2022/07/10 10:14:23;;;;;;;4.30;2.35;;;;;;;19.30;56.61;102447.53;4971879;28;20067;-83
2022/07/10 10:16:50;;;;;;;3.90;2.35;;;;;;;19.99;55.92;102438.66;4970420;28;20121;-81
2022/07/10 10:22:04;;;;;;;4.82;2.10;;;;;;;20.82;53.22;102449.38;4970297;28;20126;-81
2022/07/10 10:24:32;;;;;;;5.07;2.10;;;;;;;20.75;52.85;102453.44;4971089;28;20477;-82
2022/07/10 10:26:57;;;;;;;6.65;2.13;;;;;;;20.47;53.57;102457.13;4970918;28;20481;-82
2022/07/10 10:29:23;;;;;;;4.80;1.88;;;;;;;20.14;53.72;102450.28;4973218;28;20038;-82
2022/07/10 10:31:49;;;;;;;6.43;2.10;;;;;;;19.98;54.50;102439.63;4969769;28;20469;-82
2022/07/10 10:34:39;;;;;;;8.00;2.60;;;;;;;20.31;54.68;102450.03;4969158;28;20266;-82
2022/07/10 10:37:07;;;;;;;4.80;1.92;;;;;;;20.93;52.77;102440.47;4983215;28;20029;-83
2022/07/10 10:39:53;;;;;;;5.68;2.20;;;;;;;21.80;50.91;102437.84;4973294;28;20030;-83
2022/07/10 10:42:37;;;;;;;4.43;2.35;;;;;;;22.31;49.96;102440.41;4970078;28;20027;-83
2022/07/10 10:45:47;;;;;;;3.78;2.38;;;;;;;22.85;48.25;102439.88;4973388;28;20054;-83
2022/07/10 10:48:15;;;;;;;4.43;2.33;;;;;;;22.83;46.62;102439.16;4973925;28;20531;-83
2022/07/10 10:50:50;;;;;;;5.45;2.00;;;;;;;22.84;47.56;102430.00;4970450;28;20031;-83
2022/07/10 10:53:19;;;;;;;4.32;2.00;;;;;;;23.13;45.81;102423.31;4973963;28;20058;-83
2022/07/10 10:55:59;;;;;;;3.78;2.20;;;;;;;23.20;47.24;102430.88;4972001;28;20058;-83
2022/07/10 10:58:26;;;;;;;4.25;2.20;;;;;;;23.01;46.53;102434.16;4970233;28;20041;-83
2022/07/10 11:00:51;;;;;;;5.82;2.40;;;;;;;22.50;47.58;102430.91;4971727;28;20023;-82
2022/07/10 11:03:19;;;;;;;4.57;2.80;;;;;;;21.85;49.21;102432.97;4968675;28;20030;-82
2022/07/10 11:05:45;;;;;;;4.18;2.28;;;;;;;21.38;50.39;102436.41;4966172;28;20027;-83
2022/07/10 11:08:12;;;;;;;6.72;2.72;;;;;;;21.21;51.29;102445.69;4963886;28;20086;-82
2022/07/10 11:10:40;;;;;;;3.97;2.30;;;;;;;21.45;50.73;102426.88;4966050;28;20023;-82
2022/07/10 11:13:13;;;;;;;4.35;2.63;;;;;;;22.01;50.85;102424.56;4962200;28;20628;-82
2022/07/10 11:15:42;;;;;;;5.90;2.40;;;;;;;22.83;48.33;102430.16;4966177;28;20125;-82
2022/07/10 11:18:11;;;;;;;5.22;2.38;;;;;;;23.16;46.16;102426.66;4969225;28;20097;-83
2022/07/10 11:20:51;;;;;;;3.28;1.80;;;;;;;23.47;46.40;102422.34;4983517;28;20031;-82
2022/07/10 11:23:59;;;;;;;3.25;1.73;;;;;;;23.84;45.73;102406.66;4969698;28;20267;-82
2022/07/10 11:26:55;;;;;;;2.45;1.67;;;;;;;23.96;45.36;102406.63;4966152;28;20115;-82
2022/07/10 11:29:21;;;;;;;7.35;1.83;;;;;;;24.13;45.00;102410.66;4964587;28;20027;-82
2022/07/10 11:31:54;;;;;;;3.08;1.95;;;;;;;24.42;44.40;102416.41;4967511;28;20172;-82